sensor_id;sensor_type;location;lat;lon;timestamp;P1;durP1;ratioP1;P2;durP2;ratioP2
14348;SDS011;7258;50.376;8.742;2023-06-14T00:02:32;5.80;;;5.28;;
14348;SDS011;7258;50.376;8.742;2023-06-14T00:05:18;6.57;;;5.47;;
14348;SDS011;7258;50.376;8.742;2023-06-14T00:08:09;5.57;;;5.07;;
14348;SDS011;7258;50.376;8.742;2023-06-14T00:10:43;6.90;;;4.97;;
14348;SDS011;7258;50.376;8.742;2023-06-14T00:16:31;7.63;;;5.33;;
14348;SDS011;7258;50.376;8.742;2023-06-14T00:18:58;7.45;;;5.25;;
14348;SDS011;7258;50.376;8.742;2023-06-14T00:21:49;5.32;;;4.93;;
14348;SDS011;7258;50.376;8.742;2023-06-14T00:24:25;6.13;;;5.40;;
14348;SDS011;7258;50.376;8.742;2023-06-14T00:26:50;5.78;;;5.18;;
14348;SDS011;7258;50.376;8.742;2023-06-14T00:29:32;7.45;;;5.70;;
14348;SDS011;7258;50.376;8.742;2023-06-14T00:34:34;10.40;;;5.25;;
14348;SDS011;7258;50.376;8.742;2023-06-14T00:36:44;7.40;;;5.50;;
14348;SDS011;7258;50.376;8.742;2023-06-14T00:39:27;8.02;;;5.63;;
14348;SDS011;7258;50.376;8.742;2023-06-14T00:41:30;6.55;;;5.22;;
14348;SDS011;7258;50.376;8.742;2023-06-14T00:44:37;5.82;;;5.32;;
14348;SDS011;7258;50.376;8.742;2023-06-14T00:47:02;5.77;;;5.20;;
14348;SDS011;7258;50.376;8.742;2023-06-14T00:49:51;8.40;;;5.57;;
14348;SDS011;7258;50.376;8.742;2023-06-14T00:58:23;6.47;;;5.70;;
14348;SDS011;7258;50.376;8.742;2023-06-14T01:00:49;5.32;;;4.82;;
14348;SDS011;7258;50.376;8.742;2023-06-14T01:02:57;5.37;;;4.90;;
14348;SDS011;7258;50.376;8.742;2023-06-14T01:05:38;5.70;;;5.20;;
14348;SDS011;7258;50.376;8.742;2023-06-14T01:10:40;6.10;;;5.50;;
14348;SDS011;7258;50.376;8.742;2023-06-14T01:19:00;7.23;;;5.60;;
14348;SDS011;7258;50.376;8.742;2023-06-14T01:21:43;5.73;;;5.23;;
14348;SDS011;7258;50.376;8.742;2023-06-14T01:24:02;6.07;;;5.13;;
14348;SDS011;7258;50.376;8.742;2023-06-14T01:26:29;6.30;;;5.13;;
14348;SDS011;7258;50.376;8.742;2023-06-14T01:28:55;5.97;;;5.17;;
14348;SDS011;7258;50.376;8.742;2023-06-14T01:31:34;5.70;;;5.20;;
14348;SDS011;7258;50.376;8.742;2023-06-14T01:34:03;5.53;;;5.07;;
14348;SDS011;7258;50.376;8.742;2023-06-14T01:39:46;5.80;;;5.30;;
14348;SDS011;7258;50.376;8.742;2023-06-14T01:42:37;6.73;;;5.80;;
14348;SDS011;7258;50.376;8.742;2023-06-14T01:47:54;5.40;;;4.90;;
14348;SDS011;7258;50.376;8.742;2023-06-14T01:50:43;6.27;;;5.47;;
14348;SDS011;7258;50.376;8.742;2023-06-14T01:53:18;5.20;;;4.73;;
14348;SDS011;7258;50.376;8.742;2023-06-14T01:55:23;6.43;;;5.03;;
14348;SDS011;7258;50.376;8.742;2023-06-14T01:57:56;5.10;;;4.70;;
14348;SDS011;7258;50.376;8.742;2023-06-14T02:02:55;4.93;;;4.53;;
14348;SDS011;7258;50.376;8.742;2023-06-14T02:05:04;6.37;;;5.37;;
14348;SDS011;7258;50.376;8.742;2023-06-14T02:07:59;5.27;;;4.77;;
14348;SDS011;7258;50.376;8.742;2023-06-14T02:10:16;5.83;;;5.10;;
14348;SDS011;7258;50.376;8.742;2023-06-14T02:13:48;5.67;;;4.83;;
14348;SDS011;7258;50.376;8.742;2023-06-14T02:16:06;5.73;;;5.17;;
14348;SDS011;7258;50.376;8.742;2023-06-14T02:18:54;6.23;;;4.97;;
14348;SDS011;7258;50.376;8.742;2023-06-14T02:21:28;5.20;;;4.80;;
14348;SDS011;7258;50.376;8.742;2023-06-14T02:23:57;5.93;;;5.00;;
14348;SDS011;7258;50.376;8.742;2023-06-14T02:26:57;5.40;;;5.00;;
14348;SDS011;7258;50.376;8.742;2023-06-14T02:30:25;7.53;;;5.37;;
14348;SDS011;7258;50.376;8.742;2023-06-14T02:36:33;10.10;;;5.47;;
14348;SDS011;7258;50.376;8.742;2023-06-14T02:38:59;5.87;;;5.27;;
14348;SDS011;7258;50.376;8.742;2023-06-14T02:41:18;6.93;;;5.20;;
14348;SDS011;7258;50.376;8.742;2023-06-14T02:43:43;8.40;;;5.73;;
14348;SDS011;7258;50.376;8.742;2023-06-14T02:46:18;6.07;;;5.57;;
14348;SDS011;7258;50.376;8.742;2023-06-14T02:48:36;5.93;;;5.00;;
14348;SDS011;7258;50.376;8.742;2023-06-14T02:50:56;6.63;;;5.33;;
14348;SDS011;7258;50.376;8.742;2023-06-14T02:53:47;8.33;;;5.40;;
14348;SDS011;7258;50.376;8.742;2023-06-14T02:56:06;6.53;;;5.30;;
14348;SDS011;7258;50.376;8.742;2023-06-14T03:01:27;7.67;;;5.13;;
14348;SDS011;7258;50.376;8.742;2023-06-14T03:03:55;5.83;;;5.23;;
14348;SDS011;7258;50.376;8.742;2023-06-14T03:06:21;5.57;;;5.03;;
14348;SDS011;7258;50.376;8.742;2023-06-14T03:08:45;6.20;;;4.97;;
14348;SDS011;7258;50.376;8.742;2023-06-14T03:11:16;9.27;;;5.33;;
14348;SDS011;7258;50.376;8.742;2023-06-14T03:16:41;6.80;;;5.33;;
14348;SDS011;7258;50.376;8.742;2023-06-14T03:19:14;5.63;;;5.13;;
14348;SDS011;7258;50.376;8.742;2023-06-14T03:21:46;5.43;;;4.93;;
14348;SDS011;7258;50.376;8.742;2023-06-14T03:24:24;8.50;;;5.00;;
14348;SDS011;7258;50.376;8.742;2023-06-14T03:26:51;6.50;;;4.80;;
14348;SDS011;7258;50.376;8.742;2023-06-14T03:29:09;4.97;;;4.47;;
14348;SDS011;7258;50.376;8.742;2023-06-14T03:31:25;5.00;;;4.60;;
14348;SDS011;7258;50.376;8.742;2023-06-14T03:33:52;5.50;;;4.90;;
14348;SDS011;7258;50.376;8.742;2023-06-14T03:36:19;5.63;;;4.87;;
14348;SDS011;7258;50.376;8.742;2023-06-14T03:38:53;5.50;;;4.50;;
14348;SDS011;7258;50.376;8.742;2023-06-14T03:41:05;6.10;;;4.50;;
14348;SDS011;7258;50.376;8.742;2023-06-14T03:43:20;5.10;;;4.60;;
14348;SDS011;7258;50.376;8.742;2023-06-14T03:45:56;7.50;;;4.77;;
14348;SDS011;7258;50.376;8.742;2023-06-14T03:48:15;5.97;;;5.07;;
14348;SDS011;7258;50.376;8.742;2023-06-14T03:50:43;8.13;;;4.40;;
14348;SDS011;7258;50.376;8.742;2023-06-14T03:56:39;6.33;;;4.90;;
14348;SDS011;7258;50.376;8.742;2023-06-14T03:58:48;11.60;;;4.60;;
14348;SDS011;7258;50.376;8.742;2023-06-14T04:01:17;4.40;;;4.00;;
14348;SDS011;7258;50.376;8.742;2023-06-14T04:04:16;5.50;;;4.50;;
14348;SDS011;7258;50.376;8.742;2023-06-14T04:07:06;5.43;;;4.73;;
14348;SDS011;7258;50.376;8.742;2023-06-14T04:16:28;10.30;;;5.00;;
14348;SDS011;7258;50.376;8.742;2023-06-14T04:18:45;6.27;;;4.53;;
14348;SDS011;7258;50.376;8.742;2023-06-14T04:21:04;6.03;;;4.70;;
14348;SDS011;7258;50.376;8.742;2023-06-14T04:23:16;8.17;;;5.40;;
14348;SDS011;7258;50.376;8.742;2023-06-14T04:25:20;6.40;;;4.77;;
14348;SDS011;7258;50.376;8.742;2023-06-14T04:27:26;8.80;;;5.00;;
14348;SDS011;7258;50.376;8.742;2023-06-14T04:29:32;7.37;;;5.10;;
14348;SDS011;7258;50.376;8.742;2023-06-14T04:31:36;5.77;;;4.67;;
14348;SDS011;7258;50.376;8.742;2023-06-14T04:33:39;6.53;;;4.23;;
14348;SDS011;7258;50.376;8.742;2023-06-14T04:35:45;7.97;;;4.30;;
14348;SDS011;7258;50.376;8.742;2023-06-14T04:37:50;7.80;;;4.80;;
14348;SDS011;7258;50.376;8.742;2023-06-14T04:39:54;6.73;;;4.80;;
14348;SDS011;7258;50.376;8.742;2023-06-14T04:41:58;6.63;;;4.30;;
14348;SDS011;7258;50.376;8.742;2023-06-14T04:44:01;8.45;;;4.28;;
14348;SDS011;7258;50.376;8.742;2023-06-14T04:46:04;7.47;;;4.20;;
14348;SDS011;7258;50.376;8.742;2023-06-14T04:48:12;4.37;;;3.90;;
14348;SDS011;7258;50.376;8.742;2023-06-14T04:50:15;7.53;;;4.30;;
14348;SDS011;7258;50.376;8.742;2023-06-14T04:52:18;5.20;;;4.30;;
14348;SDS011;7258;50.376;8.742;2023-06-14T04:54:22;8.37;;;4.30;;
14348;SDS011;7258;50.376;8.742;2023-06-14T04:56:27;5.07;;;3.80;;
14348;SDS011;7258;50.376;8.742;2023-06-14T04:58:31;4.73;;;4.20;;
14348;SDS011;7258;50.376;8.742;2023-06-14T05:00:34;7.65;;;4.45;;
14348;SDS011;7258;50.376;8.742;2023-06-14T05:02:37;7.67;;;4.10;;
14348;SDS011;7258;50.376;8.742;2023-06-14T05:04:41;4.38;;;3.97;;
14348;SDS011;7258;50.376;8.742;2023-06-14T05:06:44;5.65;;;4.40;;
14348;SDS011;7258;50.376;8.742;2023-06-14T05:08:49;10.23;;;4.20;;
14348;SDS011;7258;50.376;8.742;2023-06-14T05:10:52;6.63;;;4.18;;
14348;SDS011;7258;50.376;8.742;2023-06-14T05:12:55;6.75;;;4.10;;
14348;SDS011;7258;50.376;8.742;2023-06-14T05:14:58;8.23;;;4.32;;
14348;SDS011;7258;50.376;8.742;2023-06-14T05:17:01;6.53;;;4.22;;
14348;SDS011;7258;50.376;8.742;2023-06-14T05:19:04;6.75;;;4.10;;
14348;SDS011;7258;50.376;8.742;2023-06-14T05:21:08;7.38;;;3.75;;
14348;SDS011;7258;50.376;8.742;2023-06-14T05:23:12;6.32;;;4.22;;
14348;SDS011;7258;50.376;8.742;2023-06-14T05:25:17;5.55;;;4.03;;
14348;SDS011;7258;50.376;8.742;2023-06-14T05:27:20;8.00;;;4.60;;
14348;SDS011;7258;50.376;8.742;2023-06-14T05:29:23;8.20;;;4.30;;
14348;SDS011;7258;50.376;8.742;2023-06-14T05:31:29;4.75;;;4.05;;
14348;SDS011;7258;50.376;8.742;2023-06-14T05:33:32;6.80;;;3.78;;
14348;SDS011;7258;50.376;8.742;2023-06-14T05:35:35;5.30;;;3.83;;
14348;SDS011;7258;50.376;8.742;2023-06-14T05:37:44;7.43;;;3.72;;
14348;SDS011;7258;50.376;8.742;2023-06-14T05:39:50;9.00;;;4.00;;
14348;SDS011;7258;50.376;8.742;2023-06-14T05:42:16;4.65;;;3.92;;
14348;SDS011;7258;50.376;8.742;2023-06-14T05:44:26;6.38;;;3.83;;
14348;SDS011;7258;50.376;8.742;2023-06-14T05:46:29;5.53;;;3.97;;
14348;SDS011;7258;50.376;8.742;2023-06-14T05:48:34;4.53;;;3.85;;
14348;SDS011;7258;50.376;8.742;2023-06-14T05:50:37;6.85;;;4.07;;
14348;SDS011;7258;50.376;8.742;2023-06-14T05:52:40;9.68;;;3.72;;
14348;SDS011;7258;50.376;8.742;2023-06-14T05:54:48;4.70;;;3.60;;
14348;SDS011;7258;50.376;8.742;2023-06-14T05:56:51;5.68;;;3.50;;
14348;SDS011;7258;50.376;8.742;2023-06-14T05:58:54;5.95;;;3.53;;
14348;SDS011;7258;50.376;8.742;2023-06-14T06:00:57;5.60;;;3.38;;
14348;SDS011;7258;50.376;8.742;2023-06-14T06:03:00;5.25;;;3.38;;
14348;SDS011;7258;50.376;8.742;2023-06-14T06:05:04;4.18;;;3.20;;
14348;SDS011;7258;50.376;8.742;2023-06-14T06:07:08;3.97;;;3.28;;
14348;SDS011;7258;50.376;8.742;2023-06-14T06:09:11;4.32;;;3.28;;
14348;SDS011;7258;50.376;8.742;2023-06-14T06:11:19;7.60;;;3.40;;
14348;SDS011;7258;50.376;8.742;2023-06-14T06:13:23;6.35;;;3.63;;
14348;SDS011;7258;50.376;8.742;2023-06-14T06:15:26;5.85;;;3.60;;
14348;SDS011;7258;50.376;8.742;2023-06-14T06:17:29;6.68;;;3.35;;
14348;SDS011;7258;50.376;8.742;2023-06-14T06:19:51;7.82;;;3.50;;
14348;SDS011;7258;50.376;8.742;2023-06-14T06:21:54;4.00;;;3.25;;
14348;SDS011;7258;50.376;8.742;2023-06-14T06:23:57;5.28;;;3.47;;
14348;SDS011;7258;50.376;8.742;2023-06-14T06:26:00;3.30;;;3.00;;
14348;SDS011;7258;50.376;8.742;2023-06-14T06:28:04;5.03;;;3.10;;
14348;SDS011;7258;50.376;8.742;2023-06-14T06:30:08;3.97;;;3.25;;
14348;SDS011;7258;50.376;8.742;2023-06-14T06:32:14;4.80;;;3.28;;
14348;SDS011;7258;50.376;8.742;2023-06-14T06:34:18;4.10;;;2.97;;
14348;SDS011;7258;50.376;8.742;2023-06-14T06:36:22;3.60;;;3.08;;
14348;SDS011;7258;50.376;8.742;2023-06-14T06:38:27;3.22;;;2.92;;
14348;SDS011;7258;50.376;8.742;2023-06-14T06:40:31;4.18;;;3.00;;
14348;SDS011;7258;50.376;8.742;2023-06-14T06:42:37;4.13;;;3.20;;
14348;SDS011;7258;50.376;8.742;2023-06-14T06:44:44;4.47;;;3.20;;
14348;SDS011;7258;50.376;8.742;2023-06-14T06:46:49;3.22;;;2.92;;
14348;SDS011;7258;50.376;8.742;2023-06-14T06:48:55;3.40;;;3.10;;
14348;SDS011;7258;50.376;8.742;2023-06-14T06:50:58;4.80;;;3.13;;
14348;SDS011;7258;50.376;8.742;2023-06-14T06:53:01;9.18;;;2.90;;
14348;SDS011;7258;50.376;8.742;2023-06-14T06:55:04;3.00;;;2.70;;
14348;SDS011;7258;50.376;8.742;2023-06-14T06:57:08;4.10;;;2.47;;
14348;SDS011;7258;50.376;8.742;2023-06-14T06:59:12;5.70;;;3.10;;
14348;SDS011;7258;50.376;8.742;2023-06-14T07:01:19;4.38;;;2.88;;
14348;SDS011;7258;50.376;8.742;2023-06-14T07:03:22;5.55;;;3.10;;
14348;SDS011;7258;50.376;8.742;2023-06-14T07:05:25;3.63;;;2.70;;
14348;SDS011;7258;50.376;8.742;2023-06-14T07:07:31;3.70;;;2.40;;
14348;SDS011;7258;50.376;8.742;2023-06-14T07:09:34;3.30;;;2.60;;
14348;SDS011;7258;50.376;8.742;2023-06-14T07:11:37;3.92;;;3.10;;
14348;SDS011;7258;50.376;8.742;2023-06-14T07:13:40;4.20;;;2.65;;
14348;SDS011;7258;50.376;8.742;2023-06-14T07:15:43;2.88;;;2.50;;
14348;SDS011;7258;50.376;8.742;2023-06-14T07:17:47;5.60;;;2.70;;
14348;SDS011;7258;50.376;8.742;2023-06-14T07:19:52;3.38;;;2.50;;
14348;SDS011;7258;50.376;8.742;2023-06-14T07:21:55;3.05;;;2.60;;
14348;SDS011;7258;50.376;8.742;2023-06-14T07:23:58;3.13;;;2.50;;
14348;SDS011;7258;50.376;8.742;2023-06-14T07:26:01;2.60;;;2.40;;
14348;SDS011;7258;50.376;8.742;2023-06-14T07:28:06;3.38;;;2.53;;
14348;SDS011;7258;50.376;8.742;2023-06-14T07:30:09;2.67;;;2.47;;
14348;SDS011;7258;50.376;8.742;2023-06-14T07:32:13;5.68;;;2.65;;
14348;SDS011;7258;50.376;8.742;2023-06-14T07:34:17;2.80;;;2.47;;
14348;SDS011;7258;50.376;8.742;2023-06-14T07:36:20;7.18;;;2.58;;
14348;SDS011;7258;50.376;8.742;2023-06-14T07:38:24;4.30;;;2.50;;
14348;SDS011;7258;50.376;8.742;2023-06-14T07:40:26;2.33;;;2.10;;
14348;SDS011;7258;50.376;8.742;2023-06-14T07:42:30;5.60;;;2.42;;
14348;SDS011;7258;50.376;8.742;2023-06-14T07:44:33;3.67;;;2.40;;
14348;SDS011;7258;50.376;8.742;2023-06-14T07:46:36;5.53;;;2.50;;
14348;SDS011;7258;50.376;8.742;2023-06-14T07:48:39;3.35;;;2.28;;
14348;SDS011;7258;50.376;8.742;2023-06-14T07:50:44;3.60;;;2.50;;
14348;SDS011;7258;50.376;8.742;2023-06-14T07:52:47;5.60;;;2.70;;
14348;SDS011;7258;50.376;8.742;2023-06-14T07:54:50;2.50;;;2.30;;
14348;SDS011;7258;50.376;8.742;2023-06-14T07:56:53;6.80;;;2.17;;
14348;SDS011;7258;50.376;8.742;2023-06-14T07:58:57;7.55;;;2.70;;
14348;SDS011;7258;50.376;8.742;2023-06-14T08:01:00;4.18;;;2.40;;
14348;SDS011;7258;50.376;8.742;2023-06-14T08:03:07;2.72;;;2.45;;
14348;SDS011;7258;50.376;8.742;2023-06-14T08:05:13;3.90;;;2.65;;
14348;SDS011;7258;50.376;8.742;2023-06-14T08:07:20;4.20;;;2.65;;
14348;SDS011;7258;50.376;8.742;2023-06-14T08:09:26;2.40;;;2.15;;
14348;SDS011;7258;50.376;8.742;2023-06-14T08:11:37;3.85;;;2.40;;
14348;SDS011;7258;50.376;8.742;2023-06-14T08:13:40;2.88;;;2.00;;
14348;SDS011;7258;50.376;8.742;2023-06-14T08:15:43;5.10;;;2.10;;
14348;SDS011;7258;50.376;8.742;2023-06-14T08:17:47;2.20;;;2.00;;
14348;SDS011;7258;50.376;8.742;2023-06-14T08:19:51;2.67;;;1.88;;
14348;SDS011;7258;50.376;8.742;2023-06-14T08:21:56;3.08;;;2.13;;
14348;SDS011;7258;50.376;8.742;2023-06-14T08:24:00;3.58;;;2.45;;
14348;SDS011;7258;50.376;8.742;2023-06-14T08:26:04;2.20;;;1.92;;
14348;SDS011;7258;50.376;8.742;2023-06-14T08:28:07;4.32;;;2.00;;
14348;SDS011;7258;50.376;8.742;2023-06-14T08:30:14;3.17;;;2.05;;
14348;SDS011;7258;50.376;8.742;2023-06-14T08:32:18;2.83;;;1.85;;
14348;SDS011;7258;50.376;8.742;2023-06-14T08:34:21;3.05;;;2.10;;
14348;SDS011;7258;50.376;8.742;2023-06-14T08:36:30;3.47;;;2.30;;
14348;SDS011;7258;50.376;8.742;2023-06-14T08:38:33;3.53;;;1.90;;
14348;SDS011;7258;50.376;8.742;2023-06-14T08:40:37;2.42;;;2.13;;
14348;SDS011;7258;50.376;8.742;2023-06-14T08:42:42;2.88;;;1.73;;
14348;SDS011;7258;50.376;8.742;2023-06-14T08:44:45;3.25;;;2.05;;
14348;SDS011;7258;50.376;8.742;2023-06-14T08:46:48;2.75;;;2.00;;
14348;SDS011;7258;50.376;8.742;2023-06-14T08:48:58;2.95;;;1.98;;
14348;SDS011;7258;50.376;8.742;2023-06-14T08:51:01;4.70;;;2.10;;
14348;SDS011;7258;50.376;8.742;2023-06-14T08:53:06;4.43;;;2.30;;
14348;SDS011;7258;50.376;8.742;2023-06-14T08:55:13;3.50;;;1.52;;
14348;SDS011;7258;50.376;8.742;2023-06-14T08:57:20;2.00;;;1.90;;
14348;SDS011;7258;50.376;8.742;2023-06-14T08:59:23;3.55;;;2.10;;
14348;SDS011;7258;50.376;8.742;2023-06-14T09:01:28;3.78;;;1.88;;
14348;SDS011;7258;50.376;8.742;2023-06-14T09:03:32;1.90;;;1.80;;
14348;SDS011;7258;50.376;8.742;2023-06-14T09:05:38;2.25;;;1.88;;
14348;SDS011;7258;50.376;8.742;2023-06-14T09:07:41;3.25;;;2.03;;
14348;SDS011;7258;50.376;8.742;2023-06-14T09:09:45;2.53;;;2.30;;
14348;SDS011;7258;50.376;8.742;2023-06-14T09:12:07;3.60;;;2.10;;
14348;SDS011;7258;50.376;8.742;2023-06-14T09:14:17;3.70;;;2.47;;
14348;SDS011;7258;50.376;8.742;2023-06-14T09:16:20;5.72;;;2.47;;
14348;SDS011;7258;50.376;8.742;2023-06-14T09:18:24;2.35;;;2.10;;
14348;SDS011;7258;50.376;8.742;2023-06-14T09:20:36;2.88;;;2.00;;
14348;SDS011;7258;50.376;8.742;2023-06-14T09:22:39;5.00;;;2.00;;
14348;SDS011;7258;50.376;8.742;2023-06-14T09:24:47;3.15;;;2.10;;
14348;SDS011;7258;50.376;8.742;2023-06-14T09:26:50;3.90;;;1.98;;
14348;SDS011;7258;50.376;8.742;2023-06-14T09:28:53;4.30;;;2.22;;
14348;SDS011;7258;50.376;8.742;2023-06-14T09:30:58;5.47;;;2.28;;
14348;SDS011;7258;50.376;8.742;2023-06-14T09:33:02;2.60;;;2.15;;
14348;SDS011;7258;50.376;8.742;2023-06-14T09:35:05;3.35;;;2.17;;
14348;SDS011;7258;50.376;8.742;2023-06-14T09:37:09;2.58;;;2.13;;
14348;SDS011;7258;50.376;8.742;2023-06-14T09:39:12;1.80;;;1.70;;
14348;SDS011;7258;50.376;8.742;2023-06-14T09:41:20;3.75;;;2.05;;
14348;SDS011;7258;50.376;8.742;2023-06-14T09:43:23;3.10;;;2.22;;
14348;SDS011;7258;50.376;8.742;2023-06-14T09:45:28;2.33;;;2.13;;
14348;SDS011;7258;50.376;8.742;2023-06-14T09:47:34;2.33;;;2.13;;
14348;SDS011;7258;50.376;8.742;2023-06-14T09:49:37;3.08;;;2.17;;
14348;SDS011;7258;50.376;8.742;2023-06-14T09:51:42;2.63;;;2.05;;
14348;SDS011;7258;50.376;8.742;2023-06-14T09:53:50;2.13;;;2.03;;
14348;SDS011;7258;50.376;8.742;2023-06-14T09:55:53;2.90;;;2.15;;
14348;SDS011;7258;50.376;8.742;2023-06-14T09:57:59;2.42;;;2.22;;
14348;SDS011;7258;50.376;8.742;2023-06-14T10:00:08;4.05;;;2.30;;
14348;SDS011;7258;50.376;8.742;2023-06-14T10:02:14;2.65;;;2.17;;
14348;SDS011;7258;50.376;8.742;2023-06-14T10:04:25;2.78;;;2.13;;
14348;SDS011;7258;50.376;8.742;2023-06-14T10:06:32;3.45;;;2.10;;
14348;SDS011;7258;50.376;8.742;2023-06-14T10:08:39;4.97;;;1.98;;
14348;SDS011;7258;50.376;8.742;2023-06-14T10:10:43;2.42;;;2.15;;
14348;SDS011;7258;50.376;8.742;2023-06-14T10:12:46;3.65;;;2.10;;
14348;SDS011;7258;50.376;8.742;2023-06-14T10:14:49;2.28;;;2.08;;
14348;SDS011;7258;50.376;8.742;2023-06-14T10:16:59;5.70;;;2.30;;
14348;SDS011;7258;50.376;8.742;2023-06-14T10:19:07;2.47;;;2.10;;
14348;SDS011;7258;50.376;8.742;2023-06-14T10:21:28;5.55;;;2.40;;
14348;SDS011;7258;50.376;8.742;2023-06-14T10:25:04;2.33;;;2.10;;
14348;SDS011;7258;50.376;8.742;2023-06-14T10:27:13;4.43;;;2.17;;
14348;SDS011;7258;50.376;8.742;2023-06-14T10:29:18;8.55;;;2.28;;
14348;SDS011;7258;50.376;8.742;2023-06-14T10:31:21;2.38;;;2.17;;
14348;SDS011;7258;50.376;8.742;2023-06-14T10:33:24;2.83;;;2.45;;
14348;SDS011;7258;50.376;8.742;2023-06-14T10:35:27;3.22;;;2.20;;
14348;SDS011;7258;50.376;8.742;2023-06-14T10:37:31;2.70;;;2.35;;
14348;SDS011;7258;50.376;8.742;2023-06-14T10:39:38;4.40;;;2.03;;
14348;SDS011;7258;50.376;8.742;2023-06-14T10:41:50;3.58;;;2.00;;
14348;SDS011;7258;50.376;8.742;2023-06-14T10:46:30;2.45;;;2.25;;
14348;SDS011;7258;50.376;8.742;2023-06-14T10:48:33;6.13;;;2.25;;
14348;SDS011;7258;50.376;8.742;2023-06-14T10:50:43;2.67;;;2.22;;
14348;SDS011;7258;50.376;8.742;2023-06-14T10:52:49;3.03;;;2.28;;
14348;SDS011;7258;50.376;8.742;2023-06-14T10:54:55;4.93;;;2.22;;
14348;SDS011;7258;50.376;8.742;2023-06-14T10:57:27;2.60;;;2.40;;
14348;SDS011;7258;50.376;8.742;2023-06-14T10:59:42;3.55;;;2.45;;
14348;SDS011;7258;50.376;8.742;2023-06-14T11:01:51;2.20;;;2.00;;
14348;SDS011;7258;50.376;8.742;2023-06-14T11:04:08;2.13;;;1.90;;
14348;SDS011;7258;50.376;8.742;2023-06-14T11:06:14;3.28;;;2.35;;
14348;SDS011;7258;50.376;8.742;2023-06-14T11:08:24;2.10;;;2.00;;
14348;SDS011;7258;50.376;8.742;2023-06-14T11:10:41;3.35;;;2.08;;
14348;SDS011;7258;50.376;8.742;2023-06-14T11:12:47;1.80;;;1.70;;
14348;SDS011;7258;50.376;8.742;2023-06-14T11:14:50;2.08;;;1.90;;
14348;SDS011;7258;50.376;8.742;2023-06-14T11:16:57;2.15;;;2.05;;
14348;SDS011;7258;50.376;8.742;2023-06-14T11:19:01;2.35;;;2.15;;
14348;SDS011;7258;50.376;8.742;2023-06-14T11:21:05;2.17;;;1.80;;
14348;SDS011;7258;50.376;8.742;2023-06-14T11:23:09;3.53;;;2.03;;
14348;SDS011;7258;50.376;8.742;2023-06-14T11:25:14;7.35;;;2.33;;
14348;SDS011;7258;50.376;8.742;2023-06-14T11:27:17;2.65;;;2.00;;
14348;SDS011;7258;50.376;8.742;2023-06-14T11:29:20;3.00;;;2.00;;
14348;SDS011;7258;50.376;8.742;2023-06-14T11:31:23;2.20;;;2.00;;
14348;SDS011;7258;50.376;8.742;2023-06-14T11:33:26;2.45;;;2.05;;
14348;SDS011;7258;50.376;8.742;2023-06-14T11:35:29;2.20;;;2.00;;
14348;SDS011;7258;50.376;8.742;2023-06-14T11:37:33;1.80;;;1.70;;
14348;SDS011;7258;50.376;8.742;2023-06-14T11:39:36;3.10;;;2.00;;
14348;SDS011;7258;50.376;8.742;2023-06-14T11:41:41;2.88;;;1.90;;
14348;SDS011;7258;50.376;8.742;2023-06-14T11:43:44;1.80;;;1.70;;
14348;SDS011;7258;50.376;8.742;2023-06-14T11:45:47;2.20;;;1.95;;
14348;SDS011;7258;50.376;8.742;2023-06-14T11:48:09;3.00;;;2.22;;
14348;SDS011;7258;50.376;8.742;2023-06-14T11:50:12;2.80;;;2.15;;
14348;SDS011;7258;50.376;8.742;2023-06-14T11:52:16;2.95;;;1.88;;
14348;SDS011;7258;50.376;8.742;2023-06-14T11:54:20;2.10;;;2.00;;
14348;SDS011;7258;50.376;8.742;2023-06-14T11:56:23;3.03;;;2.10;;
14348;SDS011;7258;50.376;8.742;2023-06-14T11:58:30;2.22;;;2.03;;
14348;SDS011;7258;50.376;8.742;2023-06-14T12:00:35;2.88;;;1.80;;
14348;SDS011;7258;50.376;8.742;2023-06-14T12:02:38;3.83;;;2.00;;
14348;SDS011;7258;50.376;8.742;2023-06-14T12:04:42;4.50;;;2.10;;
14348;SDS011;7258;50.376;8.742;2023-06-14T12:06:45;2.63;;;2.30;;
14348;SDS011;7258;50.376;8.742;2023-06-14T12:08:57;3.25;;;2.10;;
14348;SDS011;7258;50.376;8.742;2023-06-14T12:11:00;2.67;;;2.20;;
14348;SDS011;7258;50.376;8.742;2023-06-14T12:13:03;3.08;;;2.20;;
14348;SDS011;7258;50.376;8.742;2023-06-14T12:15:09;2.47;;;1.80;;
14348;SDS011;7258;50.376;8.742;2023-06-14T12:17:16;2.50;;;2.05;;
14348;SDS011;7258;50.376;8.742;2023-06-14T12:19:19;2.55;;;2.20;;
14348;SDS011;7258;50.376;8.742;2023-06-14T12:21:28;2.88;;;2.20;;
14348;SDS011;7258;50.376;8.742;2023-06-14T12:23:44;3.13;;;2.45;;
14348;SDS011;7258;50.376;8.742;2023-06-14T12:25:48;3.38;;;2.20;;
14348;SDS011;7258;50.376;8.742;2023-06-14T12:27:53;4.18;;;2.08;;
14348;SDS011;7258;50.376;8.742;2023-06-14T12:29:59;2.70;;;1.98;;
14348;SDS011;7258;50.376;8.742;2023-06-14T12:32:05;6.97;;;2.40;;
14348;SDS011;7258;50.376;8.742;2023-06-14T12:34:08;3.55;;;2.25;;
14348;SDS011;7258;50.376;8.742;2023-06-14T12:36:11;2.30;;;2.10;;
14348;SDS011;7258;50.376;8.742;2023-06-14T12:38:15;4.90;;;2.20;;
14348;SDS011;7258;50.376;8.742;2023-06-14T12:40:18;4.57;;;2.15;;
14348;SDS011;7258;50.376;8.742;2023-06-14T12:42:22;2.63;;;2.10;;
14348;SDS011;7258;50.376;8.742;2023-06-14T12:44:25;3.03;;;2.20;;
14348;SDS011;7258;50.376;8.742;2023-06-14T12:46:28;3.88;;;2.50;;
14348;SDS011;7258;50.376;8.742;2023-06-14T12:48:32;3.60;;;2.40;;
14348;SDS011;7258;50.376;8.742;2023-06-14T12:50:35;2.45;;;2.22;;
14348;SDS011;7258;50.376;8.742;2023-06-14T12:52:38;2.40;;;2.20;;
14348;SDS011;7258;50.376;8.742;2023-06-14T12:54:41;3.60;;;2.30;;
14348;SDS011;7258;50.376;8.742;2023-06-14T12:56:44;7.20;;;2.45;;
14348;SDS011;7258;50.376;8.742;2023-06-14T12:58:47;2.30;;;2.00;;
14348;SDS011;7258;50.376;8.742;2023-06-14T13:00:50;6.88;;;2.47;;
14348;SDS011;7258;50.376;8.742;2023-06-14T13:02:53;2.58;;;2.00;;
14348;SDS011;7258;50.376;8.742;2023-06-14T13:04:57;3.67;;;2.17;;
14348;SDS011;7258;50.376;8.742;2023-06-14T13:07:01;4.32;;;1.92;;
14348;SDS011;7258;50.376;8.742;2023-06-14T13:09:08;5.88;;;2.00;;
14348;SDS011;7258;50.376;8.742;2023-06-14T13:11:10;2.05;;;1.95;;
14348;SDS011;7258;50.376;8.742;2023-06-14T13:13:14;2.67;;;2.00;;
14348;SDS011;7258;50.376;8.742;2023-06-14T13:15:17;2.53;;;1.90;;
14348;SDS011;7258;50.376;8.742;2023-06-14T13:17:20;4.78;;;2.00;;
14348;SDS011;7258;50.376;8.742;2023-06-14T13:19:23;2.25;;;2.13;;
14348;SDS011;7258;50.376;8.742;2023-06-14T13:21:27;3.70;;;2.10;;
14348;SDS011;7258;50.376;8.742;2023-06-14T13:23:30;3.60;;;2.20;;
14348;SDS011;7258;50.376;8.742;2023-06-14T13:25:33;3.35;;;2.00;;
14348;SDS011;7258;50.376;8.742;2023-06-14T13:27:36;4.88;;;2.13;;
14348;SDS011;7258;50.376;8.742;2023-06-14T13:29:39;2.30;;;2.10;;
14348;SDS011;7258;50.376;8.742;2023-06-14T13:31:42;4.88;;;2.08;;
14348;SDS011;7258;50.376;8.742;2023-06-14T13:33:45;2.38;;;2.17;;
14348;SDS011;7258;50.376;8.742;2023-06-14T13:35:48;2.78;;;1.98;;
14348;SDS011;7258;50.376;8.742;2023-06-14T13:37:52;4.68;;;2.30;;
14348;SDS011;7258;50.376;8.742;2023-06-14T13:39:56;5.85;;;2.10;;
14348;SDS011;7258;50.376;8.742;2023-06-14T13:41:58;2.25;;;2.05;;
14348;SDS011;7258;50.376;8.742;2023-06-14T13:44:01;2.55;;;1.83;;
14348;SDS011;7258;50.376;8.742;2023-06-14T13:46:05;2.08;;;1.95;;
14348;SDS011;7258;50.376;8.742;2023-06-14T13:48:10;2.78;;;2.08;;
14348;SDS011;7258;50.376;8.742;2023-06-14T13:50:13;4.38;;;1.98;;
14348;SDS011;7258;50.376;8.742;2023-06-14T13:52:17;2.95;;;1.75;;
14348;SDS011;7258;50.376;8.742;2023-06-14T13:54:22;3.35;;;2.00;;
14348;SDS011;7258;50.376;8.742;2023-06-14T13:56:24;1.85;;;1.75;;
14348;SDS011;7258;50.376;8.742;2023-06-14T13:58:27;2.20;;;1.90;;
14348;SDS011;7258;50.376;8.742;2023-06-14T14:00:30;1.88;;;1.77;;
14348;SDS011;7258;50.376;8.742;2023-06-14T14:02:33;2.55;;;2.00;;
14348;SDS011;7258;50.376;8.742;2023-06-14T14:04:36;2.15;;;1.95;;
14348;SDS011;7258;50.376;8.742;2023-06-14T14:06:40;2.47;;;2.13;;
14348;SDS011;7258;50.376;8.742;2023-06-14T14:08:43;2.88;;;1.85;;
14348;SDS011;7258;50.376;8.742;2023-06-14T14:10:47;2.13;;;1.92;;
14348;SDS011;7258;50.376;8.742;2023-06-14T14:12:50;1.95;;;1.75;;
14348;SDS011;7258;50.376;8.742;2023-06-14T14:14:54;4.00;;;2.20;;